createdAt,value
2023-05-14T00:01:49.121Z,11.59
2023-05-14T00:04:19.774Z,11.43
2023-05-14T00:06:49.376Z,11.39
2023-05-14T00:09:21.558Z,11.34
2023-05-14T00:11:51.103Z,11.34
2023-05-14T00:14:20.667Z,11.26
2023-05-14T00:16:50.221Z,11.15
2023-05-14T00:19:19.757Z,11.13
2023-05-14T00:21:49.769Z,11.15
2023-05-14T00:24:22.010Z,11.00
2023-05-14T00:26:51.579Z,10.85
2023-05-14T00:29:21.100Z,10.89
2023-05-14T00:31:50.665Z,10.86
2023-05-14T00:34:20.187Z,10.82
2023-05-14T00:36:49.697Z,10.74
2023-05-14T00:39:21.791Z,10.67
2023-05-14T00:41:51.291Z,10.62
2023-05-14T00:44:20.818Z,10.65
2023-05-14T00:46:50.426Z,10.69
2023-05-14T00:49:21.271Z,10.56
2023-05-14T00:51:50.919Z,10.47
2023-05-14T00:54:23.178Z,10.40
2023-05-14T00:56:53.472Z,10.53
2023-05-14T00:59:22.982Z,10.49
2023-05-14T01:01:52.499Z,10.58
2023-05-14T01:04:22.065Z,10.80
2023-05-14T01:06:59.550Z,10.73
2023-05-14T01:09:37.358Z,10.52
2023-05-14T01:12:12.723Z,10.35
2023-05-14T01:14:47.462Z,10.21
2023-05-14T01:17:20.141Z,10.12
2023-05-14T01:19:51.291Z,10.07
2023-05-14T01:22:23.410Z,10.18
2023-05-14T01:24:52.919Z,10.19
2023-05-14T01:27:27.310Z,10.05
2023-05-14T01:30:02.347Z,10.05
2023-05-14T01:32:33.337Z,10.11
2023-05-14T01:35:03.757Z,10.10
2023-05-14T01:37:36.003Z,10.08
2023-05-14T01:40:05.970Z,10.03
2023-05-14T01:42:36.174Z,9.95
2023-05-14T01:45:05.870Z,9.95
2023-05-14T01:47:35.681Z,9.94
2023-05-14T01:50:05.264Z,9.97
2023-05-14T01:52:37.408Z,9.99
2023-05-14T01:55:08.108Z,9.95
2023-05-14T01:57:37.578Z,9.96
2023-05-14T02:00:08.485Z,9.91
2023-05-14T02:02:38.003Z,9.87
2023-05-14T02:05:08.464Z,9.69
2023-05-14T02:07:40.565Z,9.67
2023-05-14T02:10:11.874Z,9.67
2023-05-14T02:12:41.374Z,9.60
2023-05-14T02:15:12.554Z,9.57
2023-05-14T02:17:42.096Z,9.55
2023-05-14T02:20:12.983Z,9.57
2023-05-14T02:22:46.181Z,9.58
2023-05-14T02:25:15.913Z,9.57
2023-05-14T02:27:45.506Z,9.57
2023-05-14T02:30:15.829Z,9.53
2023-05-14T02:32:46.183Z,9.53
2023-05-14T02:35:15.796Z,9.52
2023-05-14T02:37:47.897Z,9.49
2023-05-14T02:40:17.830Z,9.44
2023-05-14T02:42:47.391Z,9.41
2023-05-14T02:45:16.863Z,9.37
2023-05-14T02:47:46.490Z,9.36
2023-05-14T02:50:16.019Z,9.33
2023-05-14T02:52:48.094Z,9.27
2023-05-14T02:55:17.580Z,9.28
2023-05-14T02:57:47.071Z,9.30
2023-05-14T03:00:17.358Z,9.30
2023-05-14T03:02:47.593Z,9.29
2023-05-14T03:05:17.693Z,9.35
2023-05-14T03:07:49.769Z,9.32
2023-05-14T03:10:19.550Z,9.33
2023-05-14T03:12:49.584Z,9.36
2023-05-14T03:15:19.077Z,9.40
2023-05-14T03:17:48.610Z,9.43
2023-05-14T03:20:18.373Z,9.39
2023-05-14T03:22:50.469Z,9.37
2023-05-14T03:25:20.360Z,9.26
2023-05-14T03:27:49.844Z,9.19
2023-05-14T03:30:19.356Z,9.18
2023-05-14T03:32:48.944Z,9.15
2023-05-14T03:35:18.547Z,9.16
2023-05-14T03:37:51.085Z,9.22
2023-05-14T03:40:21.798Z,9.26
2023-05-14T03:42:51.505Z,9.29
2023-05-14T03:45:21.059Z,9.11
2023-05-14T03:47:50.602Z,8.93
2023-05-14T03:50:20.244Z,8.86
2023-05-14T03:52:52.595Z,8.78
2023-05-14T03:55:22.295Z,8.75
2023-05-14T03:57:51.815Z,8.73
2023-05-14T04:00:22.228Z,8.77
2023-05-14T04:02:51.921Z,8.85
2023-05-14T04:05:21.551Z,8.87
2023-05-14T04:07:53.675Z,8.95
2023-05-14T04:10:23.469Z,8.98
2023-05-14T04:12:53.096Z,8.97
2023-05-14T04:15:22.581Z,9.04
2023-05-14T04:17:52.116Z,9.09
2023-05-14T04:20:22.142Z,9.12
2023-05-14T04:22:55.261Z,9.14
2023-05-14T04:25:24.821Z,9.15
2023-05-14T04:27:54.293Z,9.20
2023-05-14T04:30:24.134Z,9.25
2023-05-14T04:32:54.381Z,9.25
2023-05-14T04:35:25.196Z,9.28
2023-05-14T04:37:57.351Z,9.30
2023-05-14T04:40:27.092Z,9.43
2023-05-14T04:42:56.801Z,9.54
2023-05-14T04:45:26.663Z,9.65
2023-05-14T04:47:56.433Z,9.70
2023-05-14T04:50:26.561Z,9.76
2023-05-14T04:52:58.704Z,9.89
2023-05-14T04:55:28.422Z,9.89
2023-05-14T04:57:58.065Z,9.95
2023-05-14T05:00:28.783Z,9.98
2023-05-14T05:02:58.432Z,10.13
2023-05-14T05:05:28.024Z,10.18
2023-05-14T05:08:00.290Z,10.34
2023-05-14T05:10:29.782Z,10.42
2023-05-14T05:12:59.299Z,10.43
2023-05-14T05:15:28.841Z,10.49
2023-05-14T05:17:58.397Z,10.55
2023-05-14T05:20:28.434Z,10.64
2023-05-14T05:23:00.622Z,10.88
2023-05-14T05:25:30.280Z,10.89
2023-05-14T05:27:59.797Z,10.92
2023-05-14T05:30:30.328Z,10.97
2023-05-14T05:32:59.888Z,11.07
2023-05-14T05:35:29.420Z,11.18
2023-05-14T05:38:01.946Z,11.28
2023-05-14T05:40:31.597Z,11.35
2023-05-14T05:43:01.124Z,11.48
2023-05-14T05:45:30.725Z,11.54
2023-05-14T05:48:00.229Z,11.56
2023-05-14T05:50:29.906Z,11.59
2023-05-14T05:53:02.015Z,11.73
2023-05-14T05:55:31.936Z,11.84
2023-05-14T05:58:01.425Z,12.01
2023-05-14T06:00:31.402Z,12.19
2023-05-14T06:03:03.883Z,12.32
2023-05-14T06:05:33.491Z,12.37
2023-05-14T06:08:05.779Z,12.48
2023-05-14T06:10:36.399Z,12.71
2023-05-14T06:13:06.932Z,12.87
2023-05-14T06:15:36.417Z,13.02
2023-05-14T06:18:06.008Z,13.10
2023-05-14T06:20:35.563Z,13.26
2023-05-14T06:23:07.991Z,13.30
2023-05-14T06:25:37.573Z,13.33
2023-05-14T06:28:07.516Z,13.35
2023-05-14T06:30:37.129Z,13.45
2023-05-14T06:33:06.681Z,13.55
2023-05-14T06:35:37.192Z,13.67
2023-05-14T06:38:09.261Z,13.96
2023-05-14T06:40:38.744Z,14.13
2023-05-14T06:43:08.214Z,14.27
2023-05-14T06:45:37.728Z,14.35
2023-05-14T06:48:10.416Z,14.43
2023-05-14T06:50:40.037Z,14.55
2023-05-14T06:53:12.142Z,14.72
2023-05-14T06:55:41.665Z,14.82
2023-05-14T06:58:11.565Z,14.97
2023-05-14T07:00:41.076Z,15.13
2023-05-14T07:03:10.634Z,15.10
2023-05-14T07:05:41.386Z,15.24
2023-05-14T07:08:13.508Z,15.36
2023-05-14T07:10:43.008Z,15.40
2023-05-14T07:13:12.525Z,15.50
2023-05-14T07:15:42.068Z,15.61
2023-05-14T07:18:11.599Z,15.68
2023-05-14T07:20:41.115Z,15.76
2023-05-14T07:23:13.206Z,15.85
2023-05-14T07:25:42.756Z,15.93
2023-05-14T07:28:12.229Z,16.01
2023-05-14T07:30:41.741Z,16.22
2023-05-14T07:33:11.301Z,16.35
2023-05-14T07:35:40.821Z,16.48
2023-05-14T07:38:12.906Z,16.58
2023-05-14T07:40:42.425Z,16.69
2023-05-14T07:43:12.872Z,16.82
2023-05-14T07:45:42.393Z,16.74
2023-05-14T07:48:12.074Z,16.99
2023-05-14T07:50:41.821Z,17.09
2023-05-14T07:53:13.994Z,17.24
2023-05-14T07:55:44.932Z,17.24
2023-05-14T07:58:14.459Z,17.35
2023-05-14T08:00:43.940Z,17.36
2023-05-14T08:03:13.660Z,17.53
2023-05-14T08:05:43.246Z,17.72
2023-05-14T08:08:15.399Z,17.81
2023-05-14T08:10:44.975Z,17.82
2023-05-14T08:13:14.478Z,17.87
2023-05-14T08:15:43.959Z,17.84
2023-05-14T08:18:13.502Z,17.95
2023-05-14T08:20:43.008Z,18.11
2023-05-14T08:23:15.070Z,18.06
2023-05-14T08:25:44.704Z,17.97
2023-05-14T08:28:14.216Z,17.94
2023-05-14T08:30:43.768Z,18.17
2023-05-14T08:33:13.304Z,18.41
2023-05-14T08:35:42.801Z,18.45
2023-05-14T08:38:14.910Z,18.52
2023-05-14T08:40:44.469Z,18.60
2023-05-14T08:43:14.548Z,18.69
2023-05-14T08:45:44.620Z,18.88
2023-05-14T08:48:16.668Z,19.00
2023-05-14T08:50:46.910Z,19.12
2023-05-14T08:53:19.032Z,19.05
2023-05-14T08:55:49.091Z,19.09
2023-05-14T08:58:18.617Z,19.26
2023-05-14T09:00:48.240Z,19.19
2023-05-14T09:03:18.500Z,19.25
2023-05-14T09:05:48.579Z,19.41
2023-05-14T09:08:20.781Z,19.42
2023-05-14T09:10:50.255Z,19.41
2023-05-14T09:13:19.740Z,19.53
2023-05-14T09:15:49.622Z,19.52
2023-05-14T09:18:20.082Z,19.65
2023-05-14T09:20:49.844Z,19.70
2023-05-14T09:23:21.945Z,19.63
2023-05-14T09:25:51.589Z,19.88
2023-05-14T09:28:21.484Z,19.99
2023-05-14T09:30:53.839Z,20.06
2023-05-14T09:33:30.055Z,20.04
2023-05-14T09:36:02.410Z,20.14
2023-05-14T09:38:35.471Z,19.93
2023-05-14T09:41:05.143Z,19.98
2023-05-14T09:43:34.653Z,20.24
2023-05-14T09:46:04.447Z,20.39
2023-05-14T09:48:34.004Z,20.43
2023-05-14T09:51:05.379Z,20.62
2023-05-14T09:53:38.417Z,20.66
2023-05-14T09:56:08.709Z,20.71
2023-05-14T09:58:38.221Z,20.47
2023-05-14T10:01:08.902Z,20.18
2023-05-14T10:03:38.939Z,19.97
2023-05-14T10:06:10.755Z,20.41
2023-05-14T10:08:47.070Z,20.45
2023-05-14T10:11:18.125Z,20.17
2023-05-14T10:13:53.051Z,20.22
2023-05-14T10:16:25.182Z,20.31
2023-05-14T10:18:57.279Z,20.70
2023-05-14T10:21:27.656Z,20.73
2023-05-14T10:24:00.455Z,20.58
2023-05-14T10:26:30.455Z,20.66
2023-05-14T10:29:00.034Z,20.74
2023-05-14T10:31:51.340Z,20.85
2023-05-14T10:34:37.865Z,21.05
2023-05-14T10:37:08.087Z,21.26
2023-05-14T10:39:47.666Z,21.37
2023-05-14T10:42:20.051Z,21.31
2023-05-14T10:44:55.613Z,21.35
2023-05-14T10:47:25.247Z,21.14
2023-05-14T10:49:56.769Z,21.04
2023-05-14T10:52:26.832Z,20.56
2023-05-14T10:55:03.215Z,20.49
2023-05-14T10:57:34.551Z,20.23
2023-05-14T11:00:07.396Z,20.37
2023-05-14T11:02:38.635Z,20.31
2023-05-14T11:05:10.731Z,20.48
2023-05-14T11:07:41.653Z,21.12
2023-05-14T11:10:15.765Z,21.53
2023-05-14T11:12:46.456Z,21.50
2023-05-14T11:15:17.457Z,21.20
2023-05-14T11:17:48.486Z,21.36
2023-05-14T11:20:18.980Z,21.16
2023-05-14T11:22:51.737Z,21.01
2023-05-14T11:25:25.998Z,20.69
2023-05-14T11:27:58.408Z,20.69
2023-05-14T11:30:29.445Z,20.59
2023-05-14T11:33:01.232Z,20.44
2023-05-14T11:35:31.578Z,20.22
2023-05-14T11:38:01.048Z,19.98
2023-05-14T11:40:33.136Z,20.04
2023-05-14T11:43:02.824Z,20.16
2023-05-14T11:45:33.403Z,20.04
2023-05-14T11:48:02.979Z,20.02
2023-05-14T11:50:33.178Z,19.94
2023-05-14T11:53:02.731Z,19.83
2023-05-14T11:55:37.130Z,19.58
2023-05-14T11:58:06.648Z,19.69
2023-05-14T12:00:36.582Z,19.79
2023-05-14T12:03:06.644Z,19.68
2023-05-14T12:05:36.190Z,19.72
2023-05-14T12:08:05.657Z,19.82
2023-05-14T12:10:46.876Z,20.14
2023-05-14T12:13:18.581Z,20.33
2023-05-14T12:15:49.781Z,20.48
2023-05-14T12:18:24.558Z,20.44
2023-05-14T12:20:54.820Z,20.88
2023-05-14T12:23:28.213Z,21.19
2023-05-14T12:26:06.154Z,21.06
2023-05-14T12:28:38.542Z,20.85
2023-05-14T12:31:08.602Z,20.78
2023-05-14T12:33:38.194Z,20.55
2023-05-14T12:36:20.417Z,20.42
2023-05-14T12:38:51.158Z,20.51
2023-05-14T12:41:23.296Z,20.87
2023-05-14T12:43:52.804Z,21.02
2023-05-14T12:46:22.511Z,20.93
2023-05-14T12:48:53.468Z,20.74
2023-05-14T12:51:23.216Z,20.53
2023-05-14T12:53:54.348Z,21.16
2023-05-14T12:56:28.490Z,22.12
2023-05-14T12:58:58.884Z,23.03
2023-05-14T13:01:28.518Z,23.04
2023-05-14T13:03:58.935Z,22.65
2023-05-14T13:06:28.551Z,21.83
2023-05-14T13:09:00.332Z,21.80
2023-05-14T13:11:32.511Z,22.06
2023-05-14T13:14:02.218Z,22.04
2023-05-14T13:16:32.428Z,22.24
2023-05-14T13:19:02.022Z,22.91
2023-05-14T13:21:31.778Z,23.37
2023-05-14T13:24:01.234Z,23.65
2023-05-14T13:26:33.337Z,23.33
2023-05-14T13:29:02.834Z,22.94
2023-05-14T13:31:34.437Z,22.42
2023-05-14T13:34:04.383Z,21.84
2023-05-14T13:36:34.008Z,21.61
2023-05-14T13:39:03.482Z,21.52
2023-05-14T13:41:37.985Z,21.83
2023-05-14T13:44:08.080Z,21.94
2023-05-14T13:46:37.973Z,21.35
2023-05-14T13:49:07.519Z,20.90
2023-05-14T13:51:37.006Z,20.64
2023-05-14T13:54:06.633Z,20.23
2023-05-14T13:56:38.772Z,19.89
2023-05-14T13:59:08.352Z,19.53
2023-05-14T14:01:37.871Z,19.67
2023-05-14T14:04:07.797Z,19.36
2023-05-14T14:06:37.319Z,19.34
2023-05-14T14:09:07.053Z,19.44
2023-05-14T14:11:39.178Z,19.56
2023-05-14T14:14:08.720Z,19.67
2023-05-14T14:16:38.337Z,19.75
2023-05-14T14:19:08.139Z,19.88
2023-05-14T14:21:39.842Z,20.00
2023-05-14T14:24:09.932Z,20.03
2023-05-14T14:26:42.015Z,20.08
2023-05-14T14:29:11.493Z,20.07
2023-05-14T14:31:41.067Z,20.13
2023-05-14T14:34:10.545Z,20.14
2023-05-14T14:36:40.010Z,20.18
2023-05-14T14:39:09.514Z,20.19
2023-05-14T14:41:39.037Z,20.22
2023-05-14T14:44:11.355Z,20.23
2023-05-14T14:46:43.002Z,20.18
2023-05-14T14:49:12.486Z,19.99
2023-05-14T14:51:41.984Z,20.05
2023-05-14T14:54:11.468Z,20.04
2023-05-14T14:56:40.949Z,20.26
2023-05-14T14:59:13.011Z,20.20
2023-05-14T15:01:42.896Z,20.16
2023-05-14T15:04:12.408Z,20.33
2023-05-14T15:06:41.929Z,20.34
2023-05-14T15:09:11.899Z,20.26
2023-05-14T15:11:41.412Z,20.41
2023-05-14T15:14:13.538Z,20.57
2023-05-14T15:16:43.181Z,20.42
2023-05-14T15:19:12.752Z,20.35
2023-05-14T15:21:42.312Z,20.30
2023-05-14T15:24:14.193Z,20.21
2023-05-14T15:26:43.815Z,20.29
2023-05-14T15:29:15.851Z,20.24
2023-05-14T15:31:45.485Z,20.20
2023-05-14T15:34:15.016Z,20.36
2023-05-14T15:36:44.486Z,20.56
2023-05-14T15:39:13.987Z,20.50
2023-05-14T15:41:43.452Z,20.50
2023-05-14T15:44:15.502Z,20.33
2023-05-14T15:46:45.064Z,20.22
2023-05-14T15:49:14.579Z,20.06
2023-05-14T15:51:44.094Z,20.01
2023-05-14T15:54:13.645Z,20.09
2023-05-14T15:56:43.150Z,20.12
2023-05-14T15:59:16.612Z,20.17
2023-05-14T16:01:46.195Z,20.39
2023-05-14T16:04:15.751Z,20.54
2023-05-14T16:06:45.422Z,20.49
2023-05-14T16:09:14.979Z,20.32
2023-05-14T16:11:44.752Z,20.41
2023-05-14T16:14:16.797Z,20.63
2023-05-14T16:16:46.431Z,20.72
2023-05-14T16:19:16.101Z,20.74
2023-05-14T16:21:45.753Z,20.78
2023-05-14T16:24:15.296Z,20.80
2023-05-14T16:26:44.821Z,20.87
2023-05-14T16:29:16.927Z,21.02
2023-05-14T16:31:46.480Z,21.10
2023-05-14T16:34:16.297Z,20.94
2023-05-14T16:36:45.836Z,20.88
2023-05-14T16:39:15.537Z,20.76
2023-05-14T16:41:45.036Z,20.84
2023-05-14T16:44:17.099Z,20.85
2023-05-14T16:46:46.593Z,20.75
2023-05-14T16:49:16.162Z,20.84
2023-05-14T16:51:45.820Z,20.84
2023-05-14T16:54:15.333Z,20.99
2023-05-14T16:56:48.145Z,21.15
2023-05-14T16:59:20.589Z,20.83
2023-05-14T17:01:50.867Z,20.77
2023-05-14T17:04:21.266Z,20.71
2023-05-14T17:06:51.414Z,20.89
2023-05-14T17:09:20.958Z,20.97
2023-05-14T17:11:51.025Z,20.89
2023-05-14T17:14:23.144Z,20.84
2023-05-14T17:16:52.708Z,20.75
2023-05-14T17:19:22.445Z,20.69
2023-05-14T17:21:52.096Z,20.38
2023-05-14T17:24:21.769Z,20.31
2023-05-14T17:26:51.277Z,20.09
2023-05-14T17:29:23.423Z,19.86
2023-05-14T17:31:53.191Z,19.63
2023-05-14T17:34:22.821Z,19.42
2023-05-14T17:36:52.383Z,19.22
2023-05-14T17:39:21.900Z,19.14
2023-05-14T17:41:51.439Z,19.11
2023-05-14T17:44:23.530Z,19.02
2023-05-14T17:46:53.084Z,19.07
2023-05-14T17:49:22.583Z,18.97
2023-05-14T17:51:52.085Z,18.84
2023-05-14T17:54:21.610Z,18.73
2023-05-14T17:56:51.678Z,18.65
2023-05-14T17:59:24.391Z,18.51
2023-05-14T18:01:54.090Z,18.51
2023-05-14T18:04:23.587Z,18.45
2023-05-14T18:06:53.214Z,18.39
2023-05-14T18:09:22.709Z,18.28
2023-05-14T18:11:53.053Z,18.15
2023-05-14T18:14:25.892Z,18.07
2023-05-14T18:16:56.041Z,17.98
2023-05-14T18:19:25.541Z,17.94
2023-05-14T18:21:55.622Z,17.90
2023-05-14T18:24:25.139Z,17.83
2023-05-14T18:26:54.769Z,17.75
2023-05-14T18:29:26.892Z,17.68
2023-05-14T18:31:56.389Z,17.62
2023-05-14T18:34:25.873Z,17.52
2023-05-14T18:36:55.422Z,17.35
2023-05-14T18:39:24.913Z,17.26
2023-05-14T18:41:55.247Z,17.18
2023-05-14T18:44:27.340Z,17.09
2023-05-14T18:46:59.468Z,17.07
2023-05-14T18:49:28.967Z,16.99
2023-05-14T18:51:58.423Z,16.90
2023-05-14T18:54:27.873Z,16.85
2023-05-14T18:56:57.374Z,16.79
2023-05-14T18:59:29.596Z,16.76
2023-05-14T19:01:59.199Z,16.70
2023-05-14T19:04:29.710Z,16.65
2023-05-14T19:07:02.729Z,16.49
2023-05-14T19:09:32.252Z,16.36
2023-05-14T19:12:01.757Z,16.22
2023-05-14T19:14:33.860Z,16.18
2023-05-14T19:17:03.427Z,16.18
2023-05-14T19:19:33.006Z,16.08
2023-05-14T19:22:02.506Z,15.98
2023-05-14T19:24:32.041Z,15.93
2023-05-14T19:27:01.552Z,15.84
2023-05-14T19:29:34.749Z,15.76
2023-05-14T19:32:04.739Z,15.68
2023-05-14T19:34:34.342Z,15.59
2023-05-14T19:37:04.230Z,15.56
2023-05-14T19:39:33.697Z,15.50
2023-05-14T19:42:03.225Z,15.47
2023-05-14T19:44:35.310Z,15.36
2023-05-14T19:47:04.919Z,15.34
2023-05-14T19:49:34.872Z,15.29
2023-05-14T19:52:04.334Z,15.22
2023-05-14T19:54:33.838Z,15.21
2023-05-14T19:57:03.560Z,15.18
2023-05-14T19:59:35.624Z,15.12
2023-05-14T20:02:05.241Z,15.10
2023-05-14T20:04:34.977Z,15.02
2023-05-14T20:07:04.964Z,14.98
2023-05-14T20:09:34.532Z,14.97
2023-05-14T20:12:04.059Z,14.92
2023-05-14T20:14:36.337Z,14.82
2023-05-14T20:17:06.609Z,14.81
2023-05-14T20:19:36.075Z,14.70
2023-05-14T20:22:05.570Z,14.60
2023-05-14T20:24:35.149Z,14.57
2023-05-14T20:27:04.668Z,14.55
2023-05-14T20:29:36.760Z,14.49
2023-05-14T20:32:06.494Z,14.43
2023-05-14T20:34:36.048Z,14.44
2023-05-14T20:37:06.872Z,14.34
2023-05-14T20:39:36.457Z,14.24
2023-05-14T20:42:06.148Z,14.17
2023-05-14T20:44:38.252Z,14.16
2023-05-14T20:47:08.481Z,14.13
2023-05-14T20:49:38.073Z,14.09
2023-05-14T20:52:07.910Z,14.06
2023-05-14T20:54:37.414Z,14.03
2023-05-14T20:57:07.271Z,14.03
2023-05-14T20:59:39.392Z,14.07
2023-05-14T21:02:09.013Z,14.11
2023-05-14T21:04:38.726Z,14.07
2023-05-14T21:07:08.705Z,13.99
2023-05-14T21:09:38.217Z,13.91
2023-05-14T21:12:08.672Z,13.88
2023-05-14T21:14:41.002Z,13.87
2023-05-14T21:17:10.461Z,13.80
2023-05-14T21:19:39.985Z,13.72
2023-05-14T21:22:09.720Z,13.75
2023-05-14T21:24:39.179Z,13.66
2023-05-14T21:27:08.946Z,13.64
2023-05-14T21:29:41.083Z,13.61
2023-05-14T21:32:11.657Z,13.54
2023-05-14T21:34:41.213Z,13.43
2023-05-14T21:37:10.728Z,13.36
2023-05-14T21:39:40.257Z,13.24
2023-05-14T21:42:10.798Z,13.25
2023-05-14T21:44:42.873Z,13.21
2023-05-14T21:47:12.407Z,13.15
2023-05-14T21:49:42.036Z,13.14
2023-05-14T21:52:11.812Z,12.99
2023-05-14T21:54:41.316Z,12.92
2023-05-14T21:57:10.792Z,12.86
2023-05-14T21:59:42.879Z,12.87
2023-05-14T22:02:12.481Z,12.85
2023-05-14T22:04:42.121Z,12.79
2023-05-14T22:07:11.646Z,12.80
2023-05-14T22:09:41.117Z,12.77
2023-05-14T22:12:11.090Z,12.76
2023-05-14T22:14:43.186Z,12.81
2023-05-14T22:17:12.796Z,12.78
2023-05-14T22:19:42.318Z,12.65
2023-05-14T22:22:11.801Z,12.66
2023-05-14T22:24:41.299Z,12.63
2023-05-14T22:27:10.902Z,12.62
2023-05-14T22:29:42.963Z,12.71
2023-05-14T22:32:12.421Z,12.77
2023-05-14T22:34:41.922Z,12.61
2023-05-14T22:37:11.666Z,12.59
2023-05-14T22:39:41.332Z,12.52
2023-05-14T22:42:11.112Z,12.52
2023-05-14T22:44:43.171Z,12.60
2023-05-14T22:47:12.696Z,12.66
2023-05-14T22:49:43.753Z,12.67
2023-05-14T22:52:13.285Z,12.59
2023-05-14T22:54:42.798Z,12.64
2023-05-14T22:57:12.333Z,12.61
2023-05-14T22:59:44.370Z,12.76
2023-05-14T23:02:13.943Z,12.67
2023-05-14T23:04:43.587Z,12.42
2023-05-14T23:07:13.129Z,12.29
2023-05-14T23:09:43.673Z,12.23
2023-05-14T23:12:13.138Z,12.18
2023-05-14T23:14:46.137Z,12.46
2023-05-14T23:17:15.677Z,12.32
2023-05-14T23:19:45.255Z,12.18
2023-05-14T23:22:14.786Z,12.11
2023-05-14T23:24:44.266Z,12.10
2023-05-14T23:27:14.194Z,12.08
2023-05-14T23:29:46.267Z,12.07
2023-05-14T23:32:15.826Z,12.07
2023-05-14T23:34:45.388Z,11.89
2023-05-14T23:37:14.977Z,11.81
2023-05-14T23:39:44.454Z,11.70
2023-05-14T23:42:13.959Z,11.75
2023-05-14T23:44:46.135Z,11.68
2023-05-14T23:47:15.743Z,11.78
2023-05-14T23:49:45.312Z,11.86
2023-05-14T23:52:14.884Z,11.57
2023-05-14T23:54:44.350Z,11.42
2023-05-14T23:57:14.648Z,11.32
2023-05-14T23:59:46.917Z,11.56
